sensor_id;sensor_type;location;lat;lon;timestamp;pressure;altitude;pressure_sealevel;temperature;humidity
58690;BME280;44470;53.206;-6.106;2023-08-06T00:01:36;101764.66;;;21.03;61.00
58690;BME280;44470;53.206;-6.106;2023-08-06T00:04:01;101760.22;;;21.02;61.36
58690;BME280;44470;53.206;-6.106;2023-08-06T00:06:27;101769.16;;;21.03;61.01
58690;BME280;44470;53.206;-6.106;2023-08-06T00:08:52;101772.69;;;21.03;61.01
58690;BME280;44470;53.206;-6.106;2023-08-06T00:11:18;101778.06;;;21.03;61.06
58690;BME280;44470;53.206;-6.106;2023-08-06T00:13:43;101771.81;;;21.01;61.13
58690;BME280;44470;53.206;-6.106;2023-08-06T00:16:12;101770.03;;;21.03;61.27
58690;BME280;44470;53.206;-6.106;2023-08-06T00:18:38;101769.16;;;21.03;60.70
58690;BME280;44470;53.206;-6.106;2023-08-06T00:21:03;101773.59;;;21.04;61.13
58690;BME280;44470;53.206;-6.106;2023-08-06T00:23:29;101772.69;;;21.03;61.13
58690;BME280;44470;53.206;-6.106;2023-08-06T00:25:54;101782.50;;;21.04;60.96
58690;BME280;44470;53.206;-6.106;2023-08-06T00:28:19;101781.63;;;21.04;60.82
58690;BME280;44470;53.206;-6.106;2023-08-06T00:30:45;101775.38;;;21.03;60.76
58690;BME280;44470;53.206;-6.106;2023-08-06T00:33:10;101777.16;;;21.04;60.99
58690;BME280;44470;53.206;-6.106;2023-08-06T00:35:36;101779.81;;;21.04;60.81
58690;BME280;44470;53.206;-6.106;2023-08-06T00:38:02;101770.03;;;21.03;60.78
58690;BME280;44470;53.206;-6.106;2023-08-06T00:40:27;101776.28;;;21.04;60.91
58690;BME280;44470;53.206;-6.106;2023-08-06T00:42:55;101771.81;;;21.03;60.76
58690;BME280;44470;53.206;-6.106;2023-08-06T00:45:20;101786.94;;;21.05;60.75
58690;BME280;44470;53.206;-6.106;2023-08-06T00:47:47;101779.81;;;21.04;60.81
58690;BME280;44470;53.206;-6.106;2023-08-06T00:50:12;101774.47;;;21.04;60.46
58690;BME280;44470;53.206;-6.106;2023-08-06T00:52:38;101773.56;;;21.05;60.74
58690;BME280;44470;53.206;-6.106;2023-08-06T00:55:04;101781.59;;;21.05;60.62
58690;BME280;44470;53.206;-6.106;2023-08-06T00:57:30;101783.38;;;21.07;60.55
58690;BME280;44470;53.206;-6.106;2023-08-06T00:59:56;101783.38;;;21.07;60.66
58690;BME280;44470;53.206;-6.106;2023-08-06T01:02:21;101777.16;;;21.04;60.55
58690;BME280;44470;53.206;-6.106;2023-08-06T01:04:47;101780.72;;;21.05;60.51
58690;BME280;44470;53.206;-6.106;2023-08-06T01:12:34;101781.59;;;21.05;60.18
58690;BME280;44470;53.206;-6.106;2023-08-06T01:17:31;101778.03;;;21.07;60.17
58690;BME280;44470;53.206;-6.106;2023-08-06T01:19:57;101778.03;;;21.07;60.24
58690;BME280;44470;53.206;-6.106;2023-08-06T01:22:22;101780.69;;;21.07;60.19
58690;BME280;44470;53.206;-6.106;2023-08-06T01:24:48;101782.47;;;21.08;60.15
58690;BME280;44470;53.206;-6.106;2023-08-06T01:27:16;101786.06;;;21.08;60.26
58690;BME280;44470;53.206;-6.106;2023-08-06T01:29:52;101786.97;;;21.07;60.33
58690;BME280;44470;53.206;-6.106;2023-08-06T01:32:20;101791.41;;;21.07;60.10
58690;BME280;44470;53.206;-6.106;2023-08-06T01:34:46;101776.31;;;21.01;60.17
58690;BME280;44470;53.206;-6.106;2023-08-06T01:37:13;101785.16;;;21.08;59.92
58690;BME280;44470;53.206;-6.106;2023-08-06T01:39:39;101788.72;;;21.07;59.80
58690;BME280;44470;53.206;-6.106;2023-08-06T01:42:05;101791.41;;;21.08;59.90
58690;BME280;44470;53.206;-6.106;2023-08-06T01:44:31;101785.16;;;21.08;59.96
58690;BME280;44470;53.206;-6.106;2023-08-06T01:46:58;101794.97;;;21.09;59.88
58690;BME280;44470;53.206;-6.106;2023-08-06T01:49:23;101798.53;;;21.08;59.78
58690;BME280;44470;53.206;-6.106;2023-08-06T01:51:49;101804.75;;;21.10;59.85
58690;BME280;44470;53.206;-6.106;2023-08-06T01:54:14;101801.22;;;21.08;59.90
58690;BME280;44470;53.206;-6.106;2023-08-06T01:56:39;101806.56;;;21.08;59.72
58690;BME280;44470;53.206;-6.106;2023-08-06T01:59:05;101808.34;;;21.09;59.97
58690;BME280;44470;53.206;-6.106;2023-08-06T02:01:30;101810.13;;;21.10;59.86
58690;BME280;44470;53.206;-6.106;2023-08-06T02:03:55;101811.91;;;21.08;59.94
58690;BME280;44470;53.206;-6.106;2023-08-06T02:06:21;101815.47;;;21.10;59.94
58690;BME280;44470;53.206;-6.106;2023-08-06T02:08:46;101809.25;;;21.09;59.94
58690;BME280;44470;53.206;-6.106;2023-08-06T02:11:14;101805.66;;;21.09;59.57
58690;BME280;44470;53.206;-6.106;2023-08-06T02:13:39;101807.44;;;21.10;59.83
58690;BME280;44470;53.206;-6.106;2023-08-06T02:16:06;101802.97;;;21.09;60.05
58690;BME280;44470;53.206;-6.106;2023-08-06T02:18:32;101807.44;;;21.10;59.77
58690;BME280;44470;53.206;-6.106;2023-08-06T02:20:59;101816.38;;;21.10;59.82
58690;BME280;44470;53.206;-6.106;2023-08-06T02:23:24;101814.59;;;21.09;59.78
58690;BME280;44470;53.206;-6.106;2023-08-06T02:25:57;101810.13;;;21.10;59.65
58690;BME280;44470;53.206;-6.106;2023-08-06T02:28:22;101805.66;;;21.10;59.82
58690;BME280;44470;53.206;-6.106;2023-08-06T02:30:51;101813.69;;;21.10;59.86
58690;BME280;44470;53.206;-6.106;2023-08-06T02:33:16;101808.34;;;21.09;59.95
58690;BME280;44470;53.206;-6.106;2023-08-06T02:35:42;101803.84;;;21.11;59.45
58690;BME280;44470;53.206;-6.106;2023-08-06T02:38:07;101805.66;;;21.10;59.61
58690;BME280;44470;53.206;-6.106;2023-08-06T02:40:32;101804.75;;;21.10;60.08
58690;BME280;44470;53.206;-6.106;2023-08-06T02:42:58;101804.75;;;21.10;59.33
58690;BME280;44470;53.206;-6.106;2023-08-06T02:45:23;101794.97;;;21.10;59.64
58690;BME280;44470;53.206;-6.106;2023-08-06T02:47:49;101791.38;;;21.10;59.89
58690;BME280;44470;53.206;-6.106;2023-08-06T02:50:14;101790.47;;;21.11;59.69
58690;BME280;44470;53.206;-6.106;2023-08-06T02:52:39;101792.28;;;21.10;60.06
58690;BME280;44470;53.206;-6.106;2023-08-06T02:55:06;101794.06;;;21.10;59.92
58690;BME280;44470;53.206;-6.106;2023-08-06T02:57:32;101783.34;;;21.10;59.76
58690;BME280;44470;53.206;-6.106;2023-08-06T02:59:57;101791.38;;;21.11;59.71
58690;BME280;44470;53.206;-6.106;2023-08-06T03:02:23;101787.81;;;21.12;59.97
58690;BME280;44470;53.206;-6.106;2023-08-06T03:05:04;101790.47;;;21.11;59.88
58690;BME280;44470;53.206;-6.106;2023-08-06T03:07:34;101782.44;;;21.11;59.92
58690;BME280;44470;53.206;-6.106;2023-08-06T03:10:08;101776.19;;;21.12;59.62
58690;BME280;44470;53.206;-6.106;2023-08-06T03:12:34;101779.78;;;21.11;60.06
58690;BME280;44470;53.206;-6.106;2023-08-06T03:15:01;101781.53;;;21.12;59.83
58690;BME280;44470;53.206;-6.106;2023-08-06T03:17:26;101779.78;;;21.12;59.77
58690;BME280;44470;53.206;-6.106;2023-08-06T03:19:52;101777.97;;;21.13;59.87
58690;BME280;44470;53.206;-6.106;2023-08-06T03:22:18;101770.84;;;21.12;59.87
58690;BME280;44470;53.206;-6.106;2023-08-06T03:24:44;101775.28;;;21.13;59.52
58690;BME280;44470;53.206;-6.106;2023-08-06T03:27:09;101773.50;;;21.12;59.71
58690;BME280;44470;53.206;-6.106;2023-08-06T03:29:37;101769.97;;;21.11;59.60
58690;BME280;44470;53.206;-6.106;2023-08-06T03:32:03;101770.84;;;21.12;60.18
58690;BME280;44470;53.206;-6.106;2023-08-06T03:34:29;101775.28;;;21.13;59.88
58690;BME280;44470;53.206;-6.106;2023-08-06T03:36:55;101772.63;;;21.13;59.72
58690;BME280;44470;53.206;-6.106;2023-08-06T03:42:49;101776.19;;;21.13;59.49
58690;BME280;44470;53.206;-6.106;2023-08-06T03:45:15;101772.63;;;21.13;59.72
58690;BME280;44470;53.206;-6.106;2023-08-06T03:47:42;101772.63;;;21.13;60.04
58690;BME280;44470;53.206;-6.106;2023-08-06T03:50:08;101772.63;;;21.13;59.78
58690;BME280;44470;53.206;-6.106;2023-08-06T03:52:33;101775.28;;;21.13;59.69
58690;BME280;44470;53.206;-6.106;2023-08-06T03:54:59;101773.53;;;21.13;60.05
58690;BME280;44470;53.206;-6.106;2023-08-06T03:57:24;101775.28;;;21.13;60.09
58690;BME280;44470;53.206;-6.106;2023-08-06T03:59:49;101779.75;;;21.14;59.57
58690;BME280;44470;53.206;-6.106;2023-08-06T04:02:16;101779.75;;;21.14;59.87
58690;BME280;44470;53.206;-6.106;2023-08-06T04:04:41;101781.56;;;21.13;59.68
58690;BME280;44470;53.206;-6.106;2023-08-06T04:07:06;101778.88;;;21.13;59.67
58690;BME280;44470;53.206;-6.106;2023-08-06T04:09:32;101780.66;;;21.14;59.54
58690;BME280;44470;53.206;-6.106;2023-08-06T04:11:57;101785.09;;;21.14;59.65
58690;BME280;44470;53.206;-6.106;2023-08-06T04:14:23;101779.75;;;21.14;59.56
58690;BME280;44470;53.206;-6.106;2023-08-06T04:16:49;101777.06;;;21.15;59.41
58690;BME280;44470;53.206;-6.106;2023-08-06T04:19:14;101781.53;;;21.15;59.62
58690;BME280;44470;53.206;-6.106;2023-08-06T04:21:40;101786.00;;;21.14;59.08
58690;BME280;44470;53.206;-6.106;2023-08-06T04:24:06;101786.88;;;21.15;59.24
58690;BME280;44470;53.206;-6.106;2023-08-06T04:26:31;101782.44;;;21.15;59.44
58690;BME280;44470;53.206;-6.106;2023-08-06T04:28:56;101789.56;;;21.15;59.46
58690;BME280;44470;53.206;-6.106;2023-08-06T04:31:22;101786.00;;;21.14;59.37
58690;BME280;44470;53.206;-6.106;2023-08-06T04:33:48;101792.22;;;21.15;59.04
58690;BME280;44470;53.206;-6.106;2023-08-06T04:36:15;101794.91;;;21.16;59.54
58690;BME280;44470;53.206;-6.106;2023-08-06T04:38:40;101794.00;;;21.16;59.26
58690;BME280;44470;53.206;-6.106;2023-08-06T04:41:10;101794.03;;;21.14;59.13
58690;BME280;44470;53.206;-6.106;2023-08-06T04:43:35;101792.22;;;21.15;59.53
58690;BME280;44470;53.206;-6.106;2023-08-06T04:46:01;101791.31;;;21.16;59.35
58690;BME280;44470;53.206;-6.106;2023-08-06T04:48:26;101791.31;;;21.16;59.35
58690;BME280;44470;53.206;-6.106;2023-08-06T04:50:51;101794.00;;;21.16;59.28
58690;BME280;44470;53.206;-6.106;2023-08-06T04:53:17;101785.97;;;21.16;58.98
58690;BME280;44470;53.206;-6.106;2023-08-06T04:55:42;101789.56;;;21.16;59.28
58690;BME280;44470;53.206;-6.106;2023-08-06T04:58:12;101792.22;;;21.15;59.20
58690;BME280;44470;53.206;-6.106;2023-08-06T05:00:37;101801.13;;;21.17;58.97
58690;BME280;44470;53.206;-6.106;2023-08-06T05:03:03;101804.72;;;21.16;59.00
58690;BME280;44470;53.206;-6.106;2023-08-06T05:05:28;101804.72;;;21.16;59.06
58690;BME280;44470;53.206;-6.106;2023-08-06T05:07:54;101816.31;;;21.16;59.08
58690;BME280;44470;53.206;-6.106;2023-08-06T05:10:19;101818.09;;;21.17;59.04
58690;BME280;44470;53.206;-6.106;2023-08-06T05:12:45;101820.78;;;21.16;59.16
58690;BME280;44470;53.206;-6.106;2023-08-06T05:15:10;101818.97;;;21.18;59.03
58690;BME280;44470;53.206;-6.106;2023-08-06T05:17:36;101819.88;;;21.17;59.21
58690;BME280;44470;53.206;-6.106;2023-08-06T05:20:01;101826.13;;;21.17;58.91
58690;BME280;44470;53.206;-6.106;2023-08-06T05:22:26;101820.78;;;21.17;59.35
58690;BME280;44470;53.206;-6.106;2023-08-06T05:24:52;101824.31;;;21.18;59.04
58690;BME280;44470;53.206;-6.106;2023-08-06T05:27:17;101824.31;;;21.18;59.39
58690;BME280;44470;53.206;-6.106;2023-08-06T05:29:44;101821.66;;;21.18;59.03
58690;BME280;44470;53.206;-6.106;2023-08-06T05:32:09;101830.59;;;21.18;59.12
58690;BME280;44470;53.206;-6.106;2023-08-06T05:34:35;101830.59;;;21.17;59.29
58690;BME280;44470;53.206;-6.106;2023-08-06T05:37:00;101831.47;;;21.19;59.05
58690;BME280;44470;53.206;-6.106;2023-08-06T05:39:26;101836.81;;;21.19;58.86
58690;BME280;44470;53.206;-6.106;2023-08-06T05:41:51;101834.16;;;21.17;59.00
58690;BME280;44470;53.206;-6.106;2023-08-06T05:44:17;101839.50;;;21.19;59.02
58690;BME280;44470;53.206;-6.106;2023-08-06T05:46:43;101841.28;;;21.18;58.99
58690;BME280;44470;53.206;-6.106;2023-08-06T05:49:08;101838.59;;;21.20;58.73
58690;BME280;44470;53.206;-6.106;2023-08-06T05:51:33;101840.38;;;21.19;58.87
58690;BME280;44470;53.206;-6.106;2023-08-06T05:53:59;101849.28;;;21.20;58.82
58690;BME280;44470;53.206;-6.106;2023-08-06T05:56:24;101853.78;;;21.19;58.66
58690;BME280;44470;53.206;-6.106;2023-08-06T05:58:49;101850.19;;;21.19;59.01
58690;BME280;44470;53.206;-6.106;2023-08-06T06:01:18;101850.19;;;21.19;58.96
58690;BME280;44470;53.206;-6.106;2023-08-06T06:03:43;101854.66;;;21.20;58.98
58690;BME280;44470;53.206;-6.106;2023-08-06T06:06:09;101851.97;;;21.20;58.82
58690;BME280;44470;53.206;-6.106;2023-08-06T06:08:34;101848.44;;;21.21;58.70
58690;BME280;44470;53.206;-6.106;2023-08-06T06:10:59;101852.88;;;21.20;59.05
58690;BME280;44470;53.206;-6.106;2023-08-06T06:13:25;101853.78;;;21.21;58.64
58690;BME280;44470;53.206;-6.106;2023-08-06T06:15:53;101860.91;;;21.20;58.93
58690;BME280;44470;53.206;-6.106;2023-08-06T06:18:19;101860.00;;;21.20;59.09
58690;BME280;44470;53.206;-6.106;2023-08-06T06:20:44;101861.81;;;21.21;58.66
58690;BME280;44470;53.206;-6.106;2023-08-06T06:23:09;101862.69;;;21.20;59.15
58690;BME280;44470;53.206;-6.106;2023-08-06T06:25:35;101867.16;;;21.21;58.96
58690;BME280;44470;53.206;-6.106;2023-08-06T06:28:00;101876.97;;;21.22;58.77
58690;BME280;44470;53.206;-6.106;2023-08-06T06:30:25;101867.16;;;21.21;58.48
58690;BME280;44470;53.206;-6.106;2023-08-06T06:32:51;101875.19;;;21.21;58.81
58690;BME280;44470;53.206;-6.106;2023-08-06T06:35:16;101867.16;;;21.21;59.01
58690;BME280;44470;53.206;-6.106;2023-08-06T06:37:42;101877.88;;;21.21;58.78
58690;BME280;44470;53.206;-6.106;2023-08-06T06:40:07;101876.97;;;21.22;58.89
58690;BME280;44470;53.206;-6.106;2023-08-06T06:42:32;101882.34;;;21.22;58.99
58690;BME280;44470;53.206;-6.106;2023-08-06T06:45:00;101876.97;;;21.22;58.73
58690;BME280;44470;53.206;-6.106;2023-08-06T06:47:26;101886.78;;;21.23;59.04
58690;BME280;44470;53.206;-6.106;2023-08-06T06:49:52;101881.44;;;21.23;58.98
58690;BME280;44470;53.206;-6.106;2023-08-06T06:52:17;101890.34;;;21.24;58.55
58690;BME280;44470;53.206;-6.106;2023-08-06T06:54:43;101881.44;;;21.23;59.14
58690;BME280;44470;53.206;-6.106;2023-08-06T06:57:08;101885.00;;;21.22;58.96
58690;BME280;44470;53.206;-6.106;2023-08-06T06:59:33;101889.47;;;21.23;59.00
58690;BME280;44470;53.206;-6.106;2023-08-06T07:01:59;101891.22;;;21.23;59.06
58690;BME280;44470;53.206;-6.106;2023-08-06T07:04:24;101896.59;;;21.24;59.22
58690;BME280;44470;53.206;-6.106;2023-08-06T07:06:49;101897.50;;;21.23;59.10
58690;BME280;44470;53.206;-6.106;2023-08-06T07:09:17;101890.34;;;21.24;58.99
58690;BME280;44470;53.206;-6.106;2023-08-06T07:11:42;101895.69;;;21.25;59.08
58690;BME280;44470;53.206;-6.106;2023-08-06T07:14:09;101892.13;;;21.23;59.21
58690;BME280;44470;53.206;-6.106;2023-08-06T07:16:34;101892.13;;;21.23;58.98
58690;BME280;44470;53.206;-6.106;2023-08-06T07:19:00;101885.88;;;21.23;59.37
58690;BME280;44470;53.206;-6.106;2023-08-06T07:21:25;101893.91;;;21.24;59.45
58690;BME280;44470;53.206;-6.106;2023-08-06T07:23:51;101892.13;;;21.25;59.44
58690;BME280;44470;53.206;-6.106;2023-08-06T07:26:16;101893.91;;;21.24;59.41
58690;BME280;44470;53.206;-6.106;2023-08-06T07:28:42;101886.75;;;21.25;59.18
58690;BME280;44470;53.206;-6.106;2023-08-06T07:31:07;101894.78;;;21.25;58.79
58690;BME280;44470;53.206;-6.106;2023-08-06T07:33:32;101888.56;;;21.24;59.13
58690;BME280;44470;53.206;-6.106;2023-08-06T07:35:58;101890.34;;;21.24;59.15
58690;BME280;44470;53.206;-6.106;2023-08-06T07:38:23;101893.00;;;21.25;58.78
58690;BME280;44470;53.206;-6.106;2023-08-06T07:40:49;101888.56;;;21.24;58.63
58690;BME280;44470;53.206;-6.106;2023-08-06T07:43:14;101889.44;;;21.25;58.36
58690;BME280;44470;53.206;-6.106;2023-08-06T07:45:39;101888.56;;;21.24;58.60
58690;BME280;44470;53.206;-6.106;2023-08-06T07:48:05;101885.88;;;21.24;59.04
58690;BME280;44470;53.206;-6.106;2023-08-06T07:50:30;101883.22;;;21.24;58.75
58690;BME280;44470;53.206;-6.106;2023-08-06T07:52:55;101888.56;;;21.24;58.75
58690;BME280;44470;53.206;-6.106;2023-08-06T07:55:21;101892.13;;;21.25;58.76
58690;BME280;44470;53.206;-6.106;2023-08-06T07:57:46;101888.56;;;21.24;58.64
58690;BME280;44470;53.206;-6.106;2023-08-06T08:00:11;101883.22;;;21.24;58.50
58690;BME280;44470;53.206;-6.106;2023-08-06T08:02:40;101889.44;;;21.25;58.58
58690;BME280;44470;53.206;-6.106;2023-08-06T08:05:05;101887.66;;;21.25;59.07
58690;BME280;44470;53.206;-6.106;2023-08-06T08:07:33;101889.44;;;21.25;58.98
58690;BME280;44470;53.206;-6.106;2023-08-06T08:09:58;101886.75;;;21.25;58.97
58690;BME280;44470;53.206;-6.106;2023-08-06T08:12:24;101877.84;;;21.24;58.96
58690;BME280;44470;53.206;-6.106;2023-08-06T08:14:49;101895.69;;;21.25;58.94
58690;BME280;44470;53.206;-6.106;2023-08-06T08:17:14;101881.44;;;21.22;58.74
58690;BME280;44470;53.206;-6.106;2023-08-06T08:19:40;101890.34;;;21.25;58.83
58690;BME280;44470;53.206;-6.106;2023-08-06T08:22:05;101890.34;;;21.25;59.13
58690;BME280;44470;53.206;-6.106;2023-08-06T08:24:31;101888.56;;;21.24;59.06
58690;BME280;44470;53.206;-6.106;2023-08-06T08:26:56;101890.34;;;21.25;59.20
58690;BME280;44470;53.206;-6.106;2023-08-06T08:29:22;101885.00;;;21.25;59.47
58690;BME280;44470;53.206;-6.106;2023-08-06T08:31:47;101890.34;;;21.25;59.47
58690;BME280;44470;53.206;-6.106;2023-08-06T08:34:18;101893.00;;;21.27;59.48
58690;BME280;44470;53.206;-6.106;2023-08-06T08:36:43;101887.66;;;21.25;59.29
58690;BME280;44470;53.206;-6.106;2023-08-06T08:39:12;101886.75;;;21.26;59.12
58690;BME280;44470;53.206;-6.106;2023-08-06T08:41:37;101886.75;;;21.26;59.34
58690;BME280;44470;53.206;-6.106;2023-08-06T08:44:03;101885.00;;;21.25;59.57
58690;BME280;44470;53.206;-6.106;2023-08-06T08:46:30;101886.75;;;21.26;59.26
58690;BME280;44470;53.206;-6.106;2023-08-06T08:48:56;101885.84;;;21.26;59.27
58690;BME280;44470;53.206;-6.106;2023-08-06T08:51:24;101886.75;;;21.26;59.28
58690;BME280;44470;53.206;-6.106;2023-08-06T08:53:50;101884.09;;;21.26;59.32
58690;BME280;44470;53.206;-6.106;2023-08-06T08:56:18;101885.84;;;21.26;59.24
58690;BME280;44470;53.206;-6.106;2023-08-06T08:58:44;101892.13;;;21.26;59.34
58690;BME280;44470;53.206;-6.106;2023-08-06T09:01:09;101887.66;;;21.25;59.13
58690;BME280;44470;53.206;-6.106;2023-08-06T09:03:36;101887.66;;;21.25;59.09
58690;BME280;44470;53.206;-6.106;2023-08-06T09:06:01;101889.44;;;21.26;59.35
58690;BME280;44470;53.206;-6.106;2023-08-06T09:08:29;101890.34;;;21.25;59.64
58690;BME280;44470;53.206;-6.106;2023-08-06T09:10:56;101889.44;;;21.26;59.57
58690;BME280;44470;53.206;-6.106;2023-08-06T09:13:23;101893.00;;;21.27;59.31
58690;BME280;44470;53.206;-6.106;2023-08-06T09:15:48;101885.84;;;21.26;59.39
58690;BME280;44470;53.206;-6.106;2023-08-06T09:18:24;101899.25;;;21.27;59.31
58690;BME280;44470;53.206;-6.106;2023-08-06T09:20:50;101893.91;;;21.27;59.33
58690;BME280;44470;53.206;-6.106;2023-08-06T09:23:15;101892.13;;;21.26;59.27
58690;BME280;44470;53.206;-6.106;2023-08-06T09:25:40;101886.75;;;21.26;59.55
58690;BME280;44470;53.206;-6.106;2023-08-06T09:28:06;101885.00;;;21.25;59.52
58690;BME280;44470;53.206;-6.106;2023-08-06T09:30:35;101897.44;;;21.28;59.21
58690;BME280;44470;53.206;-6.106;2023-08-06T09:33:01;101891.22;;;21.27;59.42
58690;BME280;44470;53.206;-6.106;2023-08-06T09:35:30;101901.03;;;21.28;58.89
58690;BME280;44470;53.206;-6.106;2023-08-06T09:38:05;101904.59;;;21.27;59.33
58690;BME280;44470;53.206;-6.106;2023-08-06T09:40:32;101904.59;;;21.27;58.96
58690;BME280;44470;53.206;-6.106;2023-08-06T09:42:58;101904.59;;;21.27;59.61
58690;BME280;44470;53.206;-6.106;2023-08-06T09:45:31;101898.34;;;21.28;59.45
58690;BME280;44470;53.206;-6.106;2023-08-06T09:48:00;101898.38;;;21.25;59.57
58690;BME280;44470;53.206;-6.106;2023-08-06T09:50:28;101905.47;;;21.28;59.69
58690;BME280;44470;53.206;-6.106;2023-08-06T09:52:54;101904.59;;;21.27;59.62
58690;BME280;44470;53.206;-6.106;2023-08-06T09:55:20;101907.25;;;21.29;59.30
58690;BME280;44470;53.206;-6.106;2023-08-06T09:57:46;101901.03;;;21.27;59.22
58690;BME280;44470;53.206;-6.106;2023-08-06T10:00:12;101894.81;;;21.22;56.59
58690;BME280;44470;53.206;-6.106;2023-08-06T10:02:38;101903.75;;;21.19;56.59
58690;BME280;44470;53.206;-6.106;2023-08-06T10:05:05;101911.78;;;21.16;56.13
58690;BME280;44470;53.206;-6.106;2023-08-06T10:07:31;101910.91;;;21.14;55.70
58690;BME280;44470;53.206;-6.106;2023-08-06T10:09:56;101916.28;;;21.11;54.55
58690;BME280;44470;53.206;-6.106;2023-08-06T10:12:22;101916.31;;;21.09;54.82
58690;BME280;44470;53.206;-6.106;2023-08-06T10:14:50;101916.31;;;21.08;54.62
58690;BME280;44470;53.206;-6.106;2023-08-06T10:17:16;101922.56;;;21.07;54.72
58690;BME280;44470;53.206;-6.106;2023-08-06T10:19:42;101921.66;;;21.08;54.53
58690;BME280;44470;53.206;-6.106;2023-08-06T10:22:14;101929.72;;;21.04;54.98
58690;BME280;44470;53.206;-6.106;2023-08-06T10:24:47;101926.13;;;21.05;54.42
58690;BME280;44470;53.206;-6.106;2023-08-06T10:27:13;101925.25;;;21.05;54.80
58690;BME280;44470;53.206;-6.106;2023-08-06T10:29:38;101923.47;;;21.02;54.45
58690;BME280;44470;53.206;-6.106;2023-08-06T10:32:04;101927.09;;;21.00;53.79
58690;BME280;44470;53.206;-6.106;2023-08-06T10:37:16;101932.44;;;21.00;54.61
58690;BME280;44470;53.206;-6.106;2023-08-06T10:39:53;101928.88;;;20.96;53.82
58690;BME280;44470;53.206;-6.106;2023-08-06T10:42:28;101923.53;;;20.98;54.80
58690;BME280;44470;53.206;-6.106;2023-08-06T10:47:39;101922.63;;;20.97;54.86
58690;BME280;44470;53.206;-6.106;2023-08-06T10:50:05;101926.19;;;20.98;54.74
58690;BME280;44470;53.206;-6.106;2023-08-06T10:52:31;101934.22;;;20.98;54.98
58690;BME280;44470;53.206;-6.106;2023-08-06T10:54:57;101921.75;;;20.97;55.09
58690;BME280;44470;53.206;-6.106;2023-08-06T10:57:22;101919.97;;;20.94;54.51
58690;BME280;44470;53.206;-6.106;2023-08-06T10:59:49;101912.81;;;20.96;54.80
58690;BME280;44470;53.206;-6.106;2023-08-06T11:02:14;101912.84;;;20.95;54.10
58690;BME280;44470;53.206;-6.106;2023-08-06T11:04:39;101911.03;;;20.97;54.21
58690;BME280;44470;53.206;-6.106;2023-08-06T11:07:06;101917.25;;;20.97;54.83
58690;BME280;44470;53.206;-6.106;2023-08-06T11:09:32;101904.78;;;20.96;54.04
58690;BME280;44470;53.206;-6.106;2023-08-06T11:11:57;101902.13;;;20.98;54.78
58690;BME280;44470;53.206;-6.106;2023-08-06T11:14:23;101911.91;;;20.97;54.82
58690;BME280;44470;53.206;-6.106;2023-08-06T11:16:48;101922.59;;;21.00;55.75
58690;BME280;44470;53.206;-6.106;2023-08-06T11:19:15;101910.13;;;20.96;55.63
58690;BME280;44470;53.206;-6.106;2023-08-06T11:21:41;101906.56;;;20.99;56.23
58690;BME280;44470;53.206;-6.106;2023-08-06T11:24:10;101916.34;;;21.03;56.54
58690;BME280;44470;53.206;-6.106;2023-08-06T11:26:36;101915.44;;;21.05;56.66
58690;BME280;44470;53.206;-6.106;2023-08-06T11:29:02;101927.03;;;21.08;56.95
58690;BME280;44470;53.206;-6.106;2023-08-06T11:31:27;101923.44;;;21.10;57.28
58690;BME280;44470;53.206;-6.106;2023-08-06T11:33:53;101927.00;;;21.11;57.67
58690;BME280;44470;53.206;-6.106;2023-08-06T11:36:31;101927.00;;;21.12;57.63
58690;BME280;44470;53.206;-6.106;2023-08-06T11:38:58;101924.31;;;21.14;58.07
58690;BME280;44470;53.206;-6.106;2023-08-06T11:41:23;101928.75;;;21.15;58.02
58690;BME280;44470;53.206;-6.106;2023-08-06T11:43:49;101935.88;;;21.16;58.03
58690;BME280;44470;53.206;-6.106;2023-08-06T11:46:14;101933.22;;;21.16;58.21
58690;BME280;44470;53.206;-6.106;2023-08-06T11:48:52;101924.31;;;21.14;57.96
58690;BME280;44470;53.206;-6.106;2023-08-06T11:51:18;101935.03;;;21.11;57.35
58690;BME280;44470;53.206;-6.106;2023-08-06T11:53:48;101938.59;;;21.10;57.64
58690;BME280;44470;53.206;-6.106;2023-08-06T11:56:14;101936.81;;;21.12;57.89
58690;BME280;44470;53.206;-6.106;2023-08-06T11:58:43;101943.94;;;21.13;58.22
58690;BME280;44470;53.206;-6.106;2023-08-06T12:01:11;101941.25;;;21.14;58.08
58690;BME280;44470;53.206;-6.106;2023-08-06T12:03:41;101939.47;;;21.15;57.83
58690;BME280;44470;53.206;-6.106;2023-08-06T12:06:07;101935.88;;;21.16;58.00
58690;BME280;44470;53.206;-6.106;2023-08-06T12:08:32;101933.22;;;21.16;58.41
58690;BME280;44470;53.206;-6.106;2023-08-06T12:10:58;101932.31;;;21.18;58.10
58690;BME280;44470;53.206;-6.106;2023-08-06T12:13:23;101928.72;;;21.18;58.21
58690;BME280;44470;53.206;-6.106;2023-08-06T12:15:49;101925.19;;;21.17;58.90
58690;BME280;44470;53.206;-6.106;2023-08-06T12:18:14;101917.13;;;21.19;58.61
58690;BME280;44470;53.206;-6.106;2023-08-06T12:20:39;101922.47;;;21.19;58.79
58690;BME280;44470;53.206;-6.106;2023-08-06T12:23:05;101920.72;;;21.19;58.88
58690;BME280;44470;53.206;-6.106;2023-08-06T12:25:30;101926.94;;;21.20;58.88
58690;BME280;44470;53.206;-6.106;2023-08-06T12:27:55;101918.91;;;21.20;59.15
58690;BME280;44470;53.206;-6.106;2023-08-06T12:30:21;101922.50;;;21.20;58.90
58690;BME280;44470;53.206;-6.106;2023-08-06T12:32:46;101915.34;;;21.21;58.71
58690;BME280;44470;53.206;-6.106;2023-08-06T12:35:12;101910.88;;;21.22;59.17
58690;BME280;44470;53.206;-6.106;2023-08-06T12:37:39;101907.31;;;21.19;59.20
58690;BME280;44470;53.206;-6.106;2023-08-06T12:40:04;101922.50;;;21.22;59.36
58690;BME280;44470;53.206;-6.106;2023-08-06T12:42:30;101922.50;;;21.22;59.39
58690;BME280;44470;53.206;-6.106;2023-08-06T12:44:55;101920.69;;;21.23;59.58
58690;BME280;44470;53.206;-6.106;2023-08-06T12:47:21;101920.69;;;21.23;59.22
58690;BME280;44470;53.206;-6.106;2023-08-06T12:49:46;101927.84;;;21.22;59.28
58690;BME280;44470;53.206;-6.106;2023-08-06T12:52:11;101929.63;;;21.23;59.20